sensor_id;sensor_type;location;lat;lon;timestamp;pressure;altitude;pressure_sealevel;temperature;humidity
16194;BME280;8204;53.582;10.080;2023-12-20T00:01:00;100159.63;;;8.52;100.00
16194;BME280;8204;53.582;10.080;2023-12-20T00:03:25;100156.34;;;8.50;100.00
16194;BME280;8204;53.582;10.080;2023-12-20T00:05:51;100161.06;;;8.47;100.00
16194;BME280;8204;53.582;10.080;2023-12-20T00:08:17;100162.88;;;8.46;100.00
16194;BME280;8204;53.582;10.080;2023-12-20T00:10:44;100162.50;;;8.41;100.00
16194;BME280;8204;53.582;10.080;2023-12-20T00:13:10;100168.75;;;8.40;100.00
16194;BME280;8204;53.582;10.080;2023-12-20T00:15:36;100171.97;;;8.42;100.00
16194;BME280;8204;53.582;10.080;2023-12-20T00:18:02;100168.22;;;8.37;100.00
16194;BME280;8204;53.582;10.080;2023-12-20T00:20:29;100165.25;;;8.32;100.00
16194;BME280;8204;53.582;10.080;2023-12-20T00:22:56;100166.25;;;8.31;100.00
16194;BME280;8204;53.582;10.080;2023-12-20T00:25:22;100155.81;;;8.31;100.00
16194;BME280;8204;53.582;10.080;2023-12-20T00:27:49;100158.91;;;8.26;100.00
16194;BME280;8204;53.582;10.080;2023-12-20T00:30:14;100157.25;;;8.25;100.00
16194;BME280;8204;53.582;10.080;2023-12-20T00:32:40;100156.41;;;8.25;100.00
16194;BME280;8204;53.582;10.080;2023-12-20T00:35:15;100157.56;;;8.22;100.00
16194;BME280;8204;53.582;10.080;2023-12-20T00:37:42;100166.38;;;8.21;100.00
16194;BME280;8204;53.582;10.080;2023-12-20T00:40:08;100158.19;;;8.16;100.00
16194;BME280;8204;53.582;10.080;2023-12-20T00:42:35;100154.63;;;8.17;100.00
16194;BME280;8204;53.582;10.080;2023-12-20T00:45:01;100145.81;;;8.18;100.00
16194;BME280;8204;53.582;10.080;2023-12-20T00:47:28;100136.34;;;8.17;100.00
16194;BME280;8204;53.582;10.080;2023-12-20T00:49:54;100126.56;;;8.19;100.00
16194;BME280;8204;53.582;10.080;2023-12-20T00:52:19;100116.31;;;8.18;100.00
16194;BME280;8204;53.582;10.080;2023-12-20T00:54:48;100123.31;;;8.17;100.00
16194;BME280;8204;53.582;10.080;2023-12-20T00:57:14;100119.72;;;8.18;100.00
16194;BME280;8204;53.582;10.080;2023-12-20T00:59:40;100113.19;;;8.22;100.00
16194;BME280;8204;53.582;10.080;2023-12-20T01:02:06;100112.41;;;8.22;100.00
16194;BME280;8204;53.582;10.080;2023-12-20T01:04:32;100111.41;;;8.23;100.00
16194;BME280;8204;53.582;10.080;2023-12-20T01:06:58;100124.13;;;8.26;100.00
16194;BME280;8204;53.582;10.080;2023-12-20T01:09:25;100128.38;;;8.27;100.00
16194;BME280;8204;53.582;10.080;2023-12-20T01:11:54;100129.22;;;8.27;100.00
16194;BME280;8204;53.582;10.080;2023-12-20T01:14:19;100144.03;;;8.27;100.00
16194;BME280;8204;53.582;10.080;2023-12-20T01:16:45;100131.97;;;8.26;100.00
16194;BME280;8204;53.582;10.080;2023-12-20T01:19:11;100148.13;;;8.29;100.00
16194;BME280;8204;53.582;10.080;2023-12-20T01:21:40;100131.66;;;8.29;100.00
16194;BME280;8204;53.582;10.080;2023-12-20T01:24:06;100125.31;;;8.31;100.00
16194;BME280;8204;53.582;10.080;2023-12-20T01:26:33;100120.09;;;8.31;100.00
16194;BME280;8204;53.582;10.080;2023-12-20T01:28:59;100130.53;;;8.31;100.00
16194;BME280;8204;53.582;10.080;2023-12-20T01:31:25;100129.56;;;8.32;100.00
16194;BME280;8204;53.582;10.080;2023-12-20T01:33:53;100139.16;;;8.32;100.00
16194;BME280;8204;53.582;10.080;2023-12-20T01:36:19;100136.72;;;8.30;100.00
16194;BME280;8204;53.582;10.080;2023-12-20T01:38:45;100145.50;;;8.29;100.00
16194;BME280;8204;53.582;10.080;2023-12-20T01:41:11;100136.03;;;8.28;100.00
16194;BME280;8204;53.582;10.080;2023-12-20T01:43:37;100151.53;;;8.22;100.00
16194;BME280;8204;53.582;10.080;2023-12-20T01:46:04;100162.78;;;8.22;100.00
16194;BME280;8204;53.582;10.080;2023-12-20T01:48:31;100157.22;;;8.17;100.00
16194;BME280;8204;53.582;10.080;2023-12-20T01:50:59;100149.41;;;8.17;100.00
16194;BME280;8204;53.582;10.080;2023-12-20T01:53:27;100135.69;;;8.15;100.00
16194;BME280;8204;53.582;10.080;2023-12-20T01:55:54;100143.13;;;8.10;100.00
16194;BME280;8204;53.582;10.080;2023-12-20T01:58:20;100145.06;;;8.08;100.00
16194;BME280;8204;53.582;10.080;2023-12-20T02:00:47;100137.25;;;8.08;100.00
16194;BME280;8204;53.582;10.080;2023-12-20T02:03:14;100139.53;;;8.03;100.00
16194;BME280;8204;53.582;10.080;2023-12-20T02:05:40;100128.78;;;8.06;100.00
16194;BME280;8204;53.582;10.080;2023-12-20T02:08:07;100118.34;;;8.06;100.00
16194;BME280;8204;53.582;10.080;2023-12-20T02:10:34;100109.69;;;8.06;100.00
16194;BME280;8204;53.582;10.080;2023-12-20T02:13:00;100105.94;;;8.08;100.00
16194;BME280;8204;53.582;10.080;2023-12-20T02:15:26;100109.38;;;8.09;100.00
16194;BME280;8204;53.582;10.080;2023-12-20T02:17:53;100108.09;;;8.05;100.00
16194;BME280;8204;53.582;10.080;2023-12-20T02:20:19;100102.34;;;8.01;100.00
16194;BME280;8204;53.582;10.080;2023-12-20T02:22:45;100101.69;;;7.99;100.00
16194;BME280;8204;53.582;10.080;2023-12-20T02:25:11;100094.53;;;8.01;100.00
16194;BME280;8204;53.582;10.080;2023-12-20T02:27:37;100097.78;;;8.03;100.00
16194;BME280;8204;53.582;10.080;2023-12-20T02:30:04;100088.97;;;8.04;100.00
16194;BME280;8204;53.582;10.080;2023-12-20T02:32:31;100091.91;;;8.01;100.00
16194;BME280;8204;53.582;10.080;2023-12-20T02:34:57;100089.16;;;8.03;100.00
16194;BME280;8204;53.582;10.080;2023-12-20T02:37:23;100089.94;;;8.03;100.00
16194;BME280;8204;53.582;10.080;2023-12-20T02:39:49;100091.91;;;8.01;100.00
16194;BME280;8204;53.582;10.080;2023-12-20T02:42:15;100097.78;;;8.03;100.00
16194;BME280;8204;53.582;10.080;2023-12-20T02:44:41;100089.81;;;8.05;100.00
16194;BME280;8204;53.582;10.080;2023-12-20T02:47:08;100067.94;;;8.06;100.00
16194;BME280;8204;53.582;10.080;2023-12-20T02:49:34;100080.84;;;8.07;100.00
16194;BME280;8204;53.582;10.080;2023-12-20T02:52:00;100089.16;;;8.03;100.00
16194;BME280;8204;53.582;10.080;2023-12-20T02:54:26;100083.94;;;8.03;100.00
16194;BME280;8204;53.582;10.080;2023-12-20T02:56:52;100085.41;;;8.05;100.00
16194;BME280;8204;53.582;10.080;2023-12-20T02:59:19;100076.78;;;8.05;100.00
16194;BME280;8204;53.582;10.080;2023-12-20T03:01:45;100085.41;;;8.05;100.00
16194;BME280;8204;53.582;10.080;2023-12-20T03:04:12;100078.38;;;8.06;100.00
16194;BME280;8204;53.582;10.080;2023-12-20T03:06:38;100078.25;;;8.07;100.00
16194;BME280;8204;53.582;10.080;2023-12-20T03:09:05;100079.84;;;8.08;100.00
16194;BME280;8204;53.582;10.080;2023-12-20T03:11:31;100069.13;;;8.11;100.00
16194;BME280;8204;53.582;10.080;2023-12-20T03:13:57;100062.91;;;8.12;100.00
16194;BME280;8204;53.582;10.080;2023-12-20T03:16:23;100068.31;;;8.11;100.00
16194;BME280;8204;53.582;10.080;2023-12-20T03:18:49;100064.19;;;8.08;100.00
16194;BME280;8204;53.582;10.080;2023-12-20T03:21:16;100060.47;;;8.11;100.00
16194;BME280;8204;53.582;10.080;2023-12-20T03:23:42;100053.63;;;8.10;100.00
16194;BME280;8204;53.582;10.080;2023-12-20T03:26:08;100054.75;;;8.07;100.00
16194;BME280;8204;53.582;10.080;2023-12-20T03:28:35;100065.50;;;8.04;100.00
16194;BME280;8204;53.582;10.080;2023-12-20T03:31:02;100086.53;;;8.03;100.00
16194;BME280;8204;53.582;10.080;2023-12-20T03:33:29;100077.72;;;7.96;100.00
16194;BME280;8204;53.582;10.080;2023-12-20T03:35:55;100066.94;;;7.99;100.00
16194;BME280;8204;53.582;10.080;2023-12-20T03:38:21;100069.22;;;7.94;100.00
16194;BME280;8204;53.582;10.080;2023-12-20T03:40:46;100064.16;;;7.93;100.00
16194;BME280;8204;53.582;10.080;2023-12-20T03:43:12;100064.00;;;7.94;100.00
16194;BME280;8204;53.582;10.080;2023-12-20T03:45:38;100060.75;;;7.92;100.00
16194;BME280;8204;53.582;10.080;2023-12-20T03:48:05;100066.28;;;7.89;100.00
16194;BME280;8204;53.582;10.080;2023-12-20T03:50:31;100052.56;;;7.87;100.00
16194;BME280;8204;53.582;10.080;2023-12-20T03:52:57;100045.25;;;7.91;100.00
16194;BME280;8204;53.582;10.080;2023-12-20T03:55:23;100051.44;;;7.90;100.00
16194;BME280;8204;53.582;10.080;2023-12-20T03:57:49;100026.69;;;7.94;100.00
16194;BME280;8204;53.582;10.080;2023-12-20T04:00:15;100023.09;;;7.95;100.00
16194;BME280;8204;53.582;10.080;2023-12-20T04:02:42;100022.25;;;7.94;100.00
16194;BME280;8204;53.582;10.080;2023-12-20T04:05:09;100024.69;;;7.95;100.00
16194;BME280;8204;53.582;10.080;2023-12-20T04:07:36;100023.91;;;7.95;100.00
16194;BME280;8204;53.582;10.080;2023-12-20T04:10:02;100025.03;;;7.93;100.00
16194;BME280;8204;53.582;10.080;2023-12-20T04:12:29;100036.94;;;7.95;100.00
16194;BME280;8204;53.582;10.080;2023-12-20T04:14:56;100022.75;;;7.97;100.00
16194;BME280;8204;53.582;10.080;2023-12-20T04:17:22;100003.03;;;7.95;100.00
16194;BME280;8204;53.582;10.080;2023-12-20T04:19:49;100005.66;;;7.95;100.00
16194;BME280;8204;53.582;10.080;2023-12-20T04:22:17;99987.84;;;7.91;100.00
16194;BME280;8204;53.582;10.080;2023-12-20T04:24:43;99968.31;;;7.87;100.00
16194;BME280;8204;53.582;10.080;2023-12-20T04:27:09;99962.59;;;7.83;100.00
16194;BME280;8204;53.582;10.080;2023-12-20T04:29:35;99954.09;;;7.81;100.00
16194;BME280;8204;53.582;10.080;2023-12-20T04:32:02;99932.44;;;7.81;100.00
16194;BME280;8204;53.582;10.080;2023-12-20T04:34:29;99912.72;;;7.78;100.00
16194;BME280;8204;53.582;10.080;2023-12-20T04:36:54;99927.53;;;7.78;100.00
16194;BME280;8204;53.582;10.080;2023-12-20T04:39:21;99904.56;;;7.81;100.00
16194;BME280;8204;53.582;10.080;2023-12-20T04:41:47;99924.91;;;7.78;100.00
16194;BME280;8204;53.582;10.080;2023-12-20T04:44:13;99903.44;;;7.76;100.00
16194;BME280;8204;53.582;10.080;2023-12-20T04:46:40;99895.91;;;7.73;100.00
16194;BME280;8204;53.582;10.080;2023-12-20T04:49:07;99886.16;;;7.75;100.00
16194;BME280;8204;53.582;10.080;2023-12-20T04:51:33;99896.22;;;7.78;100.00
16194;BME280;8204;53.582;10.080;2023-12-20T04:54:00;99886.94;;;7.75;100.00
16194;BME280;8204;53.582;10.080;2023-12-20T04:56:26;99893.00;;;7.76;100.00
16194;BME280;8204;53.582;10.080;2023-12-20T04:58:53;99885.81;;;7.78;100.00
16194;BME280;8204;53.582;10.080;2023-12-20T05:01:19;99897.38;;;7.75;100.00
16194;BME280;8204;53.582;10.080;2023-12-20T05:03:44;99899.19;;;7.75;100.00
16194;BME280;8204;53.582;10.080;2023-12-20T05:06:10;99913.84;;;7.76;100.00
16194;BME280;8204;53.582;10.080;2023-12-20T05:08:37;99921.69;;;7.76;100.00
16194;BME280;8204;53.582;10.080;2023-12-20T05:11:03;99903.25;;;7.77;100.00
16194;BME280;8204;53.582;10.080;2023-12-20T05:13:29;99908.13;;;7.80;100.00
16194;BME280;8204;53.582;10.080;2023-12-20T05:15:54;99913.53;;;7.79;100.00
16194;BME280;8204;53.582;10.080;2023-12-20T05:18:21;99931.78;;;7.79;100.00
16194;BME280;8204;53.582;10.080;2023-12-20T05:20:48;99929.16;;;7.79;100.00
16194;BME280;8204;53.582;10.080;2023-12-20T05:23:15;99922.00;;;7.81;100.00
16194;BME280;8204;53.582;10.080;2023-12-20T05:25:40;99907.00;;;7.83;100.00
16194;BME280;8204;53.582;10.080;2023-12-20T05:28:07;99924.94;;;7.86;100.00
16194;BME280;8204;53.582;10.080;2023-12-20T05:30:33;99915.66;;;7.83;100.00
16194;BME280;8204;53.582;10.080;2023-12-20T05:32:59;99912.88;;;7.85;100.00
16194;BME280;8204;53.582;10.080;2023-12-20T05:35:25;99910.25;;;7.85;100.00
16194;BME280;8204;53.582;10.080;2023-12-20T05:37:51;99901.97;;;7.89;100.00
16194;BME280;8204;53.582;10.080;2023-12-20T05:40:17;99903.59;;;7.90;100.00
16194;BME280;8204;53.582;10.080;2023-12-20T05:42:44;99909.78;;;7.89;100.00
16194;BME280;8204;53.582;10.080;2023-12-20T05:45:09;99907.84;;;7.91;100.00
16194;BME280;8204;53.582;10.080;2023-12-20T05:47:35;99909.78;;;7.89;100.00
16194;BME280;8204;53.582;10.080;2023-12-20T05:50:01;99883.69;;;7.89;100.00
16194;BME280;8204;53.582;10.080;2023-12-20T05:52:28;99869.53;;;7.92;100.00
16194;BME280;8204;53.582;10.080;2023-12-20T05:54:53;99843.13;;;7.87;100.00
16194;BME280;8204;53.582;10.080;2023-12-20T05:57:20;99826.16;;;7.83;100.00
16194;BME280;8204;53.582;10.080;2023-12-20T05:59:45;99798.47;;;7.82;100.00
16194;BME280;8204;53.582;10.080;2023-12-20T06:02:11;99776.13;;;7.79;100.00
16194;BME280;8204;53.582;10.080;2023-12-20T06:04:41;99755.78;;;7.75;100.00
16194;BME280;8204;53.582;10.080;2023-12-20T06:07:07;99740.13;;;7.75;100.00
16194;BME280;8204;53.582;10.080;2023-12-20T06:09:33;99719.59;;;7.72;100.00
16194;BME280;8204;53.582;10.080;2023-12-20T06:11:59;99711.09;;;7.70;100.00
16194;BME280;8204;53.582;10.080;2023-12-20T06:14:26;99705.91;;;7.70;100.00
16194;BME280;8204;53.582;10.080;2023-12-20T06:16:52;99697.44;;;7.68;100.00
16194;BME280;8204;53.582;10.080;2023-12-20T06:19:17;99693.22;;;7.67;100.00
16194;BME280;8204;53.582;10.080;2023-12-20T06:21:43;99682.78;;;7.67;100.00
16194;BME280;8204;53.582;10.080;2023-12-20T06:24:10;99691.41;;;7.67;100.00
16194;BME280;8204;53.582;10.080;2023-12-20T06:26:36;99663.69;;;7.66;100.00
16194;BME280;8204;53.582;10.080;2023-12-20T06:29:01;99679.50;;;7.65;100.00
16194;BME280;8204;53.582;10.080;2023-12-20T06:31:27;99689.47;;;7.61;100.00
16194;BME280;8204;53.582;10.080;2023-12-20T06:33:53;99698.91;;;7.62;100.00
16194;BME280;8204;53.582;10.080;2023-12-20T06:36:23;99706.91;;;7.61;100.00
16194;BME280;8204;53.582;10.080;2023-12-20T06:38:50;99717.34;;;7.61;100.00
16194;BME280;8204;53.582;10.080;2023-12-20T06:41:16;99727.09;;;7.59;100.00
16194;BME280;8204;53.582;10.080;2023-12-20T06:43:43;99740.31;;;7.57;100.00
16194;BME280;8204;53.582;10.080;2023-12-20T06:46:09;99741.94;;;7.58;100.00
16194;BME280;8204;53.582;10.080;2023-12-20T06:48:35;99726.78;;;7.62;100.00
16194;BME280;8204;53.582;10.080;2023-12-20T06:51:01;99736.38;;;7.61;100.00
16194;BME280;8204;53.582;10.080;2023-12-20T06:53:30;99742.25;;;7.63;100.00
16194;BME280;8204;53.582;10.080;2023-12-20T06:55:56;99741.75;;;7.68;100.00
16194;BME280;8204;53.582;10.080;2023-12-20T06:58:22;99754.81;;;7.68;100.00
16194;BME280;8204;53.582;10.080;2023-12-20T07:00:48;99753.97;;;7.67;100.00
16194;BME280;8204;53.582;10.080;2023-12-20T07:03:14;99769.78;;;7.66;100.00
16194;BME280;8204;53.582;10.080;2023-12-20T07:05:40;99732.31;;;7.67;100.00
16194;BME280;8204;53.582;10.080;2023-12-20T07:08:06;99709.50;;;7.69;100.00
16194;BME280;8204;53.582;10.080;2023-12-20T07:10:33;99706.91;;;7.69;100.00
16194;BME280;8204;53.582;10.080;2023-12-20T07:12:59;99712.44;;;7.66;100.00
16194;BME280;8204;53.582;10.080;2023-12-20T07:15:25;99712.13;;;7.69;100.00
16194;BME280;8204;53.582;10.080;2023-12-20T07:17:51;99714.53;;;7.70;100.00
16194;BME280;8204;53.582;10.080;2023-12-20T07:20:17;99726.75;;;7.70;100.00
16194;BME280;8204;53.582;10.080;2023-12-20T07:22:43;99729.34;;;7.70;100.00
16194;BME280;8204;53.582;10.080;2023-12-20T07:25:09;99735.22;;;7.72;100.00
16194;BME280;8204;53.582;10.080;2023-12-20T07:27:35;99747.59;;;7.70;100.00
16194;BME280;8204;53.582;10.080;2023-12-20T07:30:02;99737.34;;;7.68;100.00
16194;BME280;8204;53.582;10.080;2023-12-20T07:32:29;99730.69;;;7.74;100.00
16194;BME280;8204;53.582;10.080;2023-12-20T07:34:55;99734.09;;;7.74;100.00
16194;BME280;8204;53.582;10.080;2023-12-20T07:37:21;99750.22;;;7.78;100.00
16194;BME280;8204;53.582;10.080;2023-12-20T07:39:47;99731.97;;;7.78;100.00
16194;BME280;8204;53.582;10.080;2023-12-20T07:42:13;99753.97;;;7.83;100.00
16194;BME280;8204;53.582;10.080;2023-12-20T07:44:39;99739.13;;;7.84;100.00
16194;BME280;8204;53.582;10.080;2023-12-20T07:47:04;99738.16;;;7.85;100.00
16194;BME280;8204;53.582;10.080;2023-12-20T07:49:31;99736.03;;;7.88;100.00
16194;BME280;8204;53.582;10.080;2023-12-20T07:51:57;99734.25;;;7.89;100.00
16194;BME280;8204;53.582;10.080;2023-12-20T07:54:22;99747.28;;;7.89;100.00
16194;BME280;8204;53.582;10.080;2023-12-20T07:56:48;99739.13;;;7.92;100.00
16194;BME280;8204;53.582;10.080;2023-12-20T07:59:14;99731.47;;;7.90;100.00
16194;BME280;8204;53.582;10.080;2023-12-20T08:01:39;99734.56;;;7.94;100.00
16194;BME280;8204;53.582;10.080;2023-12-20T08:04:04;99732.91;;;7.93;100.00
16194;BME280;8204;53.582;10.080;2023-12-20T08:06:30;99735.03;;;7.97;100.00
16194;BME280;8204;53.582;10.080;2023-12-20T08:08:56;99747.72;;;8.00;100.00
16194;BME280;8204;53.582;10.080;2023-12-20T08:11:22;99742.03;;;7.96;100.00
16194;BME280;8204;53.582;10.080;2023-12-20T08:13:48;99721.81;;;7.98;100.00
16194;BME280;8204;53.582;10.080;2023-12-20T08:16:13;99747.91;;;7.98;100.00
16194;BME280;8204;53.582;10.080;2023-12-20T08:18:40;99726.06;;;7.99;100.00
16194;BME280;8204;53.582;10.080;2023-12-20T08:21:06;99726.88;;;8.00;100.00
16194;BME280;8204;53.582;10.080;2023-12-20T08:23:33;99710.41;;;7.99;100.00
16194;BME280;8204;53.582;10.080;2023-12-20T08:26:06;99709.91;;;8.04;100.00
16194;BME280;8204;53.582;10.080;2023-12-20T08:28:32;99719.03;;;8.08;100.00
16194;BME280;8204;53.582;10.080;2023-12-20T08:30:58;99744.44;;;8.06;100.00
16194;BME280;8204;53.582;10.080;2023-12-20T08:33:24;99728.47;;;8.09;100.00
16194;BME280;8204;53.582;10.080;2023-12-20T08:35:50;99726.53;;;8.11;100.00
16194;BME280;8204;53.582;10.080;2023-12-20T08:38:16;99730.91;;;8.10;100.00
16194;BME280;8204;53.582;10.080;2023-12-20T08:40:44;99738.75;;;8.10;100.00
16194;BME280;8204;53.582;10.080;2023-12-20T08:43:09;99720.81;;;8.15;100.00
16194;BME280;8204;53.582;10.080;2023-12-20T08:45:35;99737.47;;;8.14;100.00
16194;BME280;8204;53.582;10.080;2023-12-20T08:48:00;99724.72;;;8.19;100.00
16194;BME280;8204;53.582;10.080;2023-12-20T08:50:26;99736.44;;;8.23;100.00
16194;BME280;8204;53.582;10.080;2023-12-20T08:52:52;99739.72;;;8.25;100.00
16194;BME280;8204;53.582;10.080;2023-12-20T08:55:19;99730.06;;;8.26;100.00
16194;BME280;8204;53.582;10.080;2023-12-20T08:57:45;99712.75;;;8.33;100.00
16194;BME280;8204;53.582;10.080;2023-12-20T09:00:11;99705.91;;;8.32;100.00
16194;BME280;8204;53.582;10.080;2023-12-20T09:02:36;99701.16;;;8.35;100.00
16194;BME280;8204;53.582;10.080;2023-12-20T09:05:03;99680.28;;;8.35;100.00
16194;BME280;8204;53.582;10.080;2023-12-20T09:07:28;99674.91;;;8.37;100.00
16194;BME280;8204;53.582;10.080;2023-12-20T09:09:57;99660.41;;;8.34;100.00
16194;BME280;8204;53.582;10.080;2023-12-20T09:12:22;99625.19;;;8.30;100.00
16194;BME280;8204;53.582;10.080;2023-12-20T09:14:49;99615.25;;;8.26;100.00
16194;BME280;8204;53.582;10.080;2023-12-20T09:17:16;99586.44;;;8.19;100.00
16194;BME280;8204;53.582;10.080;2023-12-20T09:19:42;99580.56;;;8.17;100.00
16194;BME280;8204;53.582;10.080;2023-12-20T09:22:09;99591.84;;;8.10;100.00
16194;BME280;8204;53.582;10.080;2023-12-20T09:24:35;99586.34;;;8.05;100.00
16194;BME280;8204;53.582;10.080;2023-12-20T09:27:00;99552.75;;;8.02;100.00
16194;BME280;8204;53.582;10.080;2023-12-20T09:29:26;99527.69;;;7.93;100.00
16194;BME280;8204;53.582;10.080;2023-12-20T09:31:51;99501.78;;;7.92;100.00
16194;BME280;8204;53.582;10.080;2023-12-20T09:34:17;99450.66;;;7.83;100.00
16194;BME280;8204;53.582;10.080;2023-12-20T09:36:43;99445.16;;;7.78;100.00
16194;BME280;8204;53.582;10.080;2023-12-20T09:39:16;99425.97;;;7.71;100.00
16194;BME280;8204;53.582;10.080;2023-12-20T09:42:03;99417.53;;;7.69;100.00
16194;BME280;8204;53.582;10.080;2023-12-20T09:44:33;99416.03;;;7.66;100.00
16194;BME280;8204;53.582;10.080;2023-12-20T09:47:02;99403.19;;;7.65;100.00
16194;BME280;8204;53.582;10.080;2023-12-20T09:49:28;99406.97;;;7.62;100.00
16194;BME280;8204;53.582;10.080;2023-12-20T09:51:54;99400.13;;;7.61;100.00
16194;BME280;8204;53.582;10.080;2023-12-20T09:54:21;99410.06;;;7.58;100.00
16194;BME280;8204;53.582;10.080;2023-12-20T09:56:47;99419.41;;;7.52;100.00
16194;BME280;8204;53.582;10.080;2023-12-20T09:59:13;99405.59;;;7.44;100.00
16194;BME280;8204;53.582;10.080;2023-12-20T10:01:42;99428.41;;;7.42;100.00
16194;BME280;8204;53.582;10.080;2023-12-20T10:04:10;99423.72;;;7.37;100.00
16194;BME280;8204;53.582;10.080;2023-12-20T10:06:44;99427.81;;;7.32;100.00
16194;BME280;8204;53.582;10.080;2023-12-20T10:09:11;99414.19;;;7.22;100.00
16194;BME280;8204;53.582;10.080;2023-12-20T10:11:40;99407.84;;;7.17;100.00
16194;BME280;8204;53.582;10.080;2023-12-20T10:14:06;99415.84;;;7.15;100.00
16194;BME280;8204;53.582;10.080;2023-12-20T10:16:33;99401.19;;;7.14;100.00
16194;BME280;8204;53.582;10.080;2023-12-20T10:18:59;99423.19;;;7.12;100.00
16194;BME280;8204;53.582;10.080;2023-12-20T10:21:27;99450.19;;;7.11;100.00
16194;BME280;8204;53.582;10.080;2023-12-20T10:23:57;99455.72;;;7.08;100.00
16194;BME280;8204;53.582;10.080;2023-12-20T10:26:26;99439.78;;;7.03;100.00
16194;BME280;8204;53.582;10.080;2023-12-20T10:28:59;99439.31;;;6.99;100.00
16194;BME280;8204;53.582;10.080;2023-12-20T10:31:34;99433.31;;;6.99;100.00
16194;BME280;8204;53.582;10.080;2023-12-20T10:34:01;99422.06;;;6.98;100.00
16194;BME280;8204;53.582;10.080;2023-12-20T10:36:32;99415.75;;;7.01;100.00
16194;BME280;8204;53.582;10.080;2023-12-20T10:38:58;99415.09;;;6.99;100.00
16194;BME280;8204;53.582;10.080;2023-12-20T10:41:29;99402.06;;;6.99;100.00
16194;BME280;8204;53.582;10.080;2023-12-20T10:43:58;99408.06;;;6.99;100.00
16194;BME280;8204;53.582;10.080;2023-12-20T10:46:25;99386.75;;;7.04;100.00
16194;BME280;8204;53.582;10.080;2023-12-20T10:48:54;99385.75;;;7.05;100.00
16194;BME280;8204;53.582;10.080;2023-12-20T10:51:21;99395.34;;;7.04;100.00
16194;BME280;8204;53.582;10.080;2023-12-20T10:53:48;99387.50;;;7.12;100.00
16194;BME280;8204;53.582;10.080;2023-12-20T10:56:17;99367.66;;;7.11;100.00
16194;BME280;8204;53.582;10.080;2023-12-20T10:58:50;99372.03;;;7.19;100.00
16194;BME280;8204;53.582;10.080;2023-12-20T11:01:19;99358.81;;;7.20;100.00
16194;BME280;8204;53.582;10.080;2023-12-20T11:03:53;99390.09;;;7.20;100.00
16194;BME280;8204;53.582;10.080;2023-12-20T11:06:26;99364.84;;;7.21;100.00
16194;BME280;8204;53.582;10.080;2023-12-20T11:11:37;99367.63;;;7.19;100.00
16194;BME280;8204;53.582;10.080;2023-12-20T11:14:07;99375.25;;;7.21;100.00
16194;BME280;8204;53.582;10.080;2023-12-20T11:16:37;99380.81;;;7.18;100.00
16194;BME280;8204;53.582;10.080;2023-12-20T11:19:06;99393.84;;;7.18;100.00
16194;BME280;8204;53.582;10.080;2023-12-20T11:21:32;99412.41;;;7.15;100.00
16194;BME280;8204;53.582;10.080;2023-12-20T11:23:57;99432.44;;;7.14;100.00
16194;BME280;8204;53.582;10.080;2023-12-20T11:26:27;99414.22;;;7.14;100.00
16194;BME280;8204;53.582;10.080;2023-12-20T11:29:30;99416.00;;;7.14;100.00
16194;BME280;8204;53.582;10.080;2023-12-20T11:31:56;99405.13;;;7.10;100.00
16194;BME280;8204;53.582;10.080;2023-12-20T11:34:26;99408.69;;;7.09;100.00
16194;BME280;8204;53.582;10.080;2023-12-20T11:36:59;99424.53;;;6.92;100.00
16194;BME280;8204;53.582;10.080;2023-12-20T11:39:26;99430.59;;;6.84;100.00
16194;BME280;8204;53.582;10.080;2023-12-20T11:41:54;99411.38;;;6.85;100.00
16194;BME280;8204;53.582;10.080;2023-12-20T11:44:19;99424.38;;;6.85;100.00
16194;BME280;8204;53.582;10.080;2023-12-20T11:46:46;99422.44;;;6.79;100.00
16194;BME280;8204;53.582;10.080;2023-12-20T11:49:11;99418.41;;;6.77;100.00
16194;BME280;8204;53.582;10.080;2023-12-20T11:51:40;99413.19;;;6.77;100.00
16194;BME280;8204;53.582;10.080;2023-12-20T11:54:06;99403.94;;;6.74;100.00
16194;BME280;8204;53.582;10.080;2023-12-20T11:56:32;99397.75;;;6.75;100.00
16194;BME280;8204;53.582;10.080;2023-12-20T11:58:58;99404.72;;;6.75;100.00
16194;BME280;8204;53.582;10.080;2023-12-20T12:01:24;99391.56;;;6.76;100.00
16194;BME280;8204;53.582;10.080;2023-12-20T12:04:04;99381.47;;;6.81;100.00
16194;BME280;8204;53.582;10.080;2023-12-20T12:06:30;99392.53;;;6.83;100.00
16194;BME280;8204;53.582;10.080;2023-12-20T12:08:55;99378.19;;;6.87;100.00
16194;BME280;8204;53.582;10.080;2023-12-20T12:11:23;99399.00;;;6.87;100.00
16194;BME280;8204;53.582;10.080;2023-12-20T12:13:48;99376.56;;;6.86;100.00
16194;BME280;8204;53.582;10.080;2023-12-20T12:16:17;99366.97;;;6.87;100.00
16194;BME280;8204;53.582;10.080;2023-12-20T12:18:45;99371.53;;;6.85;100.00
16194;BME280;8204;53.582;10.080;2023-12-20T12:21:11;99359.66;;;6.82;100.00
16194;BME280;8204;53.582;10.080;2023-12-20T12:23:43;99352.16;;;6.87;100.00
16194;BME280;8204;53.582;10.080;2023-12-20T12:26:08;99338.44;;;6.93;100.00
16194;BME280;8204;53.582;10.080;2023-12-20T12:28:34;99331.75;;;6.99;100.00
16194;BME280;8204;53.582;10.080;2023-12-20T12:31:01;99325.03;;;7.04;100.00
16194;BME280;8204;53.582;10.080;2023-12-20T12:33:27;99323.84;;;7.15;100.00
16194;BME280;8204;53.582;10.080;2023-12-20T12:35:52;99335.22;;;7.22;100.00
16194;BME280;8204;53.582;10.080;2023-12-20T12:38:22;99316.94;;;7.29;100.00
16194;BME280;8204;53.582;10.080;2023-12-20T12:40:50;99315.44;;;7.35;100.00
16194;BME280;8204;53.582;10.080;2023-12-20T12:43:15;99318.34;;;7.40;100.00
16194;BME280;8204;53.582;10.080;2023-12-20T12:45:41;99315.91;;;7.38;100.00
16194;BME280;8204;53.582;10.080;2023-12-20T12:48:07;99330.84;;;7.44;100.00
16194;BME280;8204;53.582;10.080;2023-12-20T12:50:32;99338.63;;;7.52;100.00
16194;BME280;8204;53.582;10.080;2023-12-20T12:52:58;99344.75;;;7.59;100.00
16194;BME280;8204;53.582;10.080;2023-12-20T12:55:23;99361.53;;;7.57;100.00
16194;BME280;8204;53.582;10.080;2023-12-20T12:57:49;99374.75;;;7.55;100.00